createdAt,value
2018-11-04T00:01:12.659Z,72.00
2018-11-04T00:03:40.628Z,72.09
2018-11-04T00:06:08.612Z,72.86
2018-11-04T00:08:36.539Z,72.56
2018-11-04T00:11:04.757Z,72.61
2018-11-04T00:13:32.653Z,72.31
2018-11-04T00:16:00.597Z,71.91
2018-11-04T00:18:28.461Z,72.45
2018-11-04T00:20:56.339Z,72.34
2018-11-04T00:23:24.247Z,72.20
2018-11-04T00:25:52.182Z,72.21
2018-11-04T00:28:20.095Z,72.42
2018-11-04T00:30:48.025Z,71.78
2018-11-04T00:33:15.884Z,72.36
2018-11-04T00:35:43.812Z,72.13
2018-11-04T00:38:11.726Z,71.90
2018-11-04T00:40:39.681Z,72.18
2018-11-04T00:43:07.544Z,72.30
2018-11-04T00:45:35.535Z,72.56
2018-11-04T00:48:03.453Z,72.55
2018-11-04T00:50:31.408Z,72.20
2018-11-04T00:52:59.348Z,72.07
2018-11-04T00:55:27.301Z,71.92
2018-11-04T00:57:55.229Z,71.47
2018-11-04T01:00:23.429Z,71.44
2018-11-04T01:02:51.372Z,71.33
2018-11-04T01:05:19.394Z,71.35
2018-11-04T01:07:47.352Z,71.33
2018-11-04T01:10:15.310Z,71.68
2018-11-04T01:12:43.943Z,71.98
2018-11-04T01:15:12.926Z,71.56
2018-11-04T01:17:41.507Z,71.92
2018-11-04T01:20:11.631Z,71.78
2018-11-04T01:22:39.545Z,71.78
2018-11-04T01:25:07.436Z,71.72
2018-11-04T01:27:35.409Z,71.89
2018-11-04T01:30:03.379Z,72.39
2018-11-04T01:32:31.304Z,71.88
2018-11-04T01:34:59.237Z,71.72
2018-11-04T01:37:27.139Z,71.82
2018-11-04T01:39:55.057Z,71.31
2018-11-04T01:42:22.993Z,71.33
2018-11-04T01:44:50.972Z,71.78
2018-11-04T01:47:18.833Z,72.02
2018-11-04T01:49:46.756Z,71.83
2018-11-04T01:52:14.690Z,71.94
2018-11-04T01:54:42.680Z,71.87
2018-11-04T01:57:10.540Z,71.58
2018-11-04T01:59:38.465Z,71.87
2018-11-04T02:02:06.377Z,71.98
2018-11-04T02:04:34.368Z,72.00
2018-11-04T02:07:02.289Z,71.89
2018-11-04T02:09:30.215Z,71.70
2018-11-04T02:11:58.157Z,71.80
2018-11-04T02:14:26.127Z,71.78
2018-11-04T02:16:54.095Z,71.80
2018-11-04T02:19:22.009Z,71.99
2018-11-04T02:21:49.942Z,71.97
2018-11-04T02:24:17.884Z,71.74
2018-11-04T02:26:45.748Z,71.67
2018-11-04T02:29:13.636Z,71.90
2018-11-04T02:31:41.552Z,72.06
2018-11-04T02:34:09.519Z,72.01
2018-11-04T02:36:37.417Z,72.87
2018-11-04T02:39:06.503Z,72.50
2018-11-04T02:41:34.419Z,72.36
2018-11-04T02:44:03.045Z,72.02
2018-11-04T02:46:31.085Z,72.16
2018-11-04T02:48:59.095Z,71.87
2018-11-04T02:51:27.028Z,71.53
2018-11-04T02:53:54.951Z,71.57
2018-11-04T02:56:22.909Z,71.64
2018-11-04T02:58:50.866Z,71.64
2018-11-04T03:01:18.845Z,71.76
2018-11-04T03:03:46.800Z,71.83
2018-11-04T03:06:14.774Z,71.91
2018-11-04T03:08:42.708Z,71.81
2018-11-04T03:11:10.656Z,71.93
2018-11-04T03:13:38.612Z,71.84
2018-11-04T03:16:06.572Z,71.47
2018-11-04T03:18:34.541Z,71.50
2018-11-04T03:21:02.450Z,71.57
2018-11-04T03:23:30.441Z,71.65
2018-11-04T03:25:58.434Z,71.65
2018-11-04T03:28:26.355Z,71.83
2018-11-04T03:30:54.265Z,71.23
2018-11-04T03:33:22.222Z,71.84
2018-11-04T03:35:50.134Z,71.51
2018-11-04T03:38:18.048Z,72.03
2018-11-04T03:40:45.968Z,72.46
2018-11-04T03:43:13.950Z,72.57
2018-11-04T03:45:41.869Z,72.39
2018-11-04T03:48:09.870Z,72.58
2018-11-04T03:50:37.749Z,72.78
2018-11-04T03:53:06.690Z,72.67
2018-11-04T03:55:35.593Z,73.48
2018-11-04T03:58:03.948Z,73.79
2018-11-04T04:00:31.901Z,73.12
2018-11-04T04:02:59.783Z,73.11
2018-11-04T04:05:27.704Z,72.58
2018-11-04T04:07:55.707Z,72.75
2018-11-04T04:10:23.587Z,72.61
2018-11-04T04:12:51.474Z,72.86
2018-11-04T04:15:19.422Z,73.14
2018-11-04T04:17:47.403Z,73.17
2018-11-04T04:20:15.370Z,73.17
2018-11-04T04:22:43.315Z,73.27
2018-11-04T04:25:11.272Z,73.61
2018-11-04T04:27:39.198Z,73.47
2018-11-04T04:30:08.971Z,73.34
2018-11-04T04:32:36.953Z,73.43
2018-11-04T04:35:05.725Z,73.38
2018-11-04T04:37:33.708Z,73.37
2018-11-04T04:40:02.289Z,73.44
2018-11-04T04:42:30.268Z,73.61
2018-11-04T04:44:58.329Z,73.35
2018-11-04T04:47:26.311Z,73.90
2018-11-04T04:49:54.414Z,73.67
2018-11-04T04:52:22.374Z,73.76
2018-11-04T04:54:50.303Z,74.51
2018-11-04T04:57:18.208Z,73.93
2018-11-04T04:59:46.174Z,74.08
2018-11-04T05:02:14.205Z,74.29
2018-11-04T05:04:42.129Z,74.72
2018-11-04T05:07:10.619Z,74.67
2018-11-04T05:09:40.804Z,74.56
2018-11-04T05:12:08.735Z,75.06
2018-11-04T05:14:36.714Z,75.34
2018-11-04T05:17:05.024Z,75.11
2018-11-04T05:19:32.987Z,75.24
2018-11-04T05:22:01.521Z,74.67
2018-11-04T05:24:29.500Z,74.51
2018-11-04T05:26:57.509Z,74.30
2018-11-04T05:29:25.498Z,74.37
2018-11-04T05:31:53.465Z,74.83
2018-11-04T05:34:21.438Z,74.80
2018-11-04T05:36:49.425Z,74.26
2018-11-04T05:39:17.394Z,74.39
2018-11-04T05:41:45.382Z,74.39
2018-11-04T05:44:13.305Z,74.58
2018-11-04T05:46:41.294Z,75.05
2018-11-04T05:49:09.297Z,75.68
2018-11-04T05:51:37.229Z,75.12
2018-11-04T05:54:05.509Z,74.90
2018-11-04T05:56:33.451Z,74.67
2018-11-04T05:59:01.376Z,74.95
2018-11-04T06:01:29.336Z,75.23
2018-11-04T06:03:57.247Z,74.88
2018-11-04T06:06:25.133Z,74.79
2018-11-04T06:08:53.059Z,75.06
2018-11-04T06:11:21.033Z,74.90
2018-11-04T06:13:48.935Z,75.17
2018-11-04T06:16:16.840Z,75.12
2018-11-04T06:18:44.777Z,75.06
2018-11-04T06:21:12.729Z,75.07
2018-11-04T06:23:40.610Z,74.39
2018-11-04T06:26:08.731Z,74.52
2018-11-04T06:28:36.746Z,74.59
2018-11-04T06:31:04.817Z,74.33
2018-11-04T06:33:33.366Z,73.97
2018-11-04T06:36:01.578Z,74.27
2018-11-04T06:38:29.515Z,74.23
2018-11-04T06:40:57.500Z,74.49
2018-11-04T06:43:25.526Z,74.33
2018-11-04T06:45:53.454Z,74.57
2018-11-04T06:48:21.542Z,74.06
2018-11-04T06:50:49.523Z,74.20
2018-11-04T06:53:17.601Z,74.30
2018-11-04T06:55:45.637Z,73.94
2018-11-04T06:58:13.626Z,74.20
2018-11-04T07:00:41.594Z,74.36
2018-11-04T07:03:09.659Z,74.44
2018-11-04T07:05:37.780Z,74.77
2018-11-04T07:08:05.833Z,74.84
2018-11-04T07:10:33.783Z,74.66
2018-11-04T07:13:02.145Z,74.76
2018-11-04T07:15:30.051Z,74.92
2018-11-04T07:17:58.028Z,75.25
2018-11-04T07:20:25.972Z,74.62
2018-11-04T07:22:53.967Z,74.25
2018-11-04T07:25:21.947Z,74.54
2018-11-04T07:27:49.950Z,74.74
2018-11-04T07:30:17.877Z,74.64
2018-11-04T07:32:46.080Z,74.82
2018-11-04T07:35:14.005Z,75.44
2018-11-04T07:37:42.021Z,75.11
2018-11-04T07:40:10.164Z,76.02
2018-11-04T07:42:38.655Z,75.78
2018-11-04T07:45:07.178Z,75.67
2018-11-04T07:47:35.212Z,75.59
2018-11-04T07:50:03.359Z,76.46
2018-11-04T07:52:31.315Z,76.73
2018-11-04T07:54:59.333Z,76.98
2018-11-04T07:57:27.309Z,76.68
2018-11-04T07:59:55.295Z,76.40
2018-11-04T08:02:23.289Z,77.23
2018-11-04T08:04:51.555Z,77.40
2018-11-04T08:07:19.519Z,77.57
2018-11-04T08:09:47.679Z,77.48
2018-11-04T08:12:15.914Z,76.84
2018-11-04T08:14:43.944Z,77.12
2018-11-04T08:17:12.078Z,78.31
2018-11-04T08:19:40.032Z,78.02
2018-11-04T08:22:08.149Z,78.05
2018-11-04T08:24:36.140Z,78.12
2018-11-04T08:27:04.126Z,78.05
2018-11-04T08:29:32.117Z,78.57
2018-11-04T08:32:00.904Z,78.06
2018-11-04T08:34:28.935Z,78.61
2018-11-04T08:36:57.030Z,79.83
2018-11-04T08:39:25.111Z,78.37
2018-11-04T08:41:53.106Z,78.29
2018-11-04T08:44:21.068Z,78.85
2018-11-04T08:46:49.138Z,78.67
2018-11-04T08:49:17.195Z,79.17
2018-11-04T08:51:45.207Z,79.24
2018-11-04T08:54:13.218Z,80.16
2018-11-04T08:56:41.295Z,79.56
2018-11-04T08:59:09.292Z,78.68
2018-11-04T09:01:37.317Z,79.02
2018-11-04T09:04:05.321Z,79.34
2018-11-04T09:06:33.439Z,79.26
2018-11-04T09:09:01.464Z,78.58
2018-11-04T09:11:29.539Z,78.63
2018-11-04T09:13:57.526Z,78.28
2018-11-04T09:16:25.521Z,78.38
2018-11-04T09:18:53.511Z,78.34
2018-11-04T09:21:21.941Z,77.95
2018-11-04T09:23:50.160Z,78.09
2018-11-04T09:26:18.334Z,77.79
2018-11-04T09:28:46.415Z,77.69
2018-11-04T09:31:14.438Z,77.54
2018-11-04T09:33:42.435Z,77.62
2018-11-04T09:36:10.593Z,77.58
2018-11-04T09:38:38.469Z,77.67
2018-11-04T09:41:06.424Z,77.39
2018-11-04T09:43:34.505Z,77.56
2018-11-04T09:46:02.640Z,77.28
2018-11-04T09:48:30.636Z,77.42
2018-11-04T09:50:58.768Z,77.31
2018-11-04T09:53:26.801Z,78.05
2018-11-04T09:55:54.897Z,78.06
2018-11-04T09:58:22.920Z,78.03
2018-11-04T10:00:50.914Z,77.91
2018-11-04T10:03:18.842Z,77.79
2018-11-04T10:05:46.813Z,77.48
2018-11-04T10:08:14.851Z,77.58
2018-11-04T10:10:42.819Z,76.60
2018-11-04T10:13:10.901Z,76.69
2018-11-04T10:15:39.046Z,76.54
2018-11-04T10:18:07.016Z,76.80
2018-11-04T10:20:35.380Z,76.32
2018-11-04T10:23:03.561Z,76.41
2018-11-04T10:25:31.555Z,76.20
2018-11-04T10:27:59.497Z,76.35
2018-11-04T10:30:27.576Z,76.50
2018-11-04T10:32:55.545Z,76.45
2018-11-04T10:35:23.572Z,76.21
2018-11-04T10:37:51.627Z,75.81
2018-11-04T10:40:19.612Z,77.11
2018-11-04T10:42:47.580Z,75.78
2018-11-04T10:45:15.574Z,75.60
2018-11-04T10:47:43.590Z,74.97
2018-11-04T10:50:12.559Z,75.07
2018-11-04T10:52:40.589Z,74.96
2018-11-04T10:55:09.831Z,74.01
2018-11-04T10:57:37.923Z,74.32
2018-11-04T11:00:15.867Z,73.95
2018-11-04T11:02:44.504Z,73.91
2018-11-04T11:05:12.546Z,73.41
2018-11-04T11:07:40.629Z,73.68
2018-11-04T11:10:09.655Z,73.76
2018-11-04T11:12:37.676Z,73.43
2018-11-04T11:15:06.487Z,73.54
2018-11-04T11:17:34.492Z,72.77
2018-11-04T11:20:02.554Z,72.39
2018-11-04T11:22:30.571Z,71.67
2018-11-04T11:24:58.512Z,73.42
2018-11-04T11:27:28.417Z,70.98
2018-11-04T11:29:56.477Z,73.65
2018-11-04T11:32:24.423Z,70.89
2018-11-04T11:34:52.395Z,70.72
2018-11-04T11:37:20.396Z,71.11
2018-11-04T11:39:48.358Z,69.98
2018-11-04T11:42:16.307Z,69.69
2018-11-04T11:44:44.383Z,68.33
2018-11-04T11:47:12.321Z,67.96
2018-11-04T11:49:40.309Z,69.40
2018-11-04T11:52:08.438Z,68.96
2018-11-04T11:54:36.485Z,68.78
2018-11-04T11:57:04.533Z,68.47
2018-11-04T11:59:32.540Z,69.04
2018-11-04T12:02:00.635Z,68.81
2018-11-04T12:04:28.666Z,68.58
2018-11-04T12:06:57.534Z,69.71
2018-11-04T12:09:25.512Z,68.56
2018-11-04T12:11:53.700Z,69.09
2018-11-04T12:14:21.707Z,69.57
2018-11-04T12:16:49.781Z,67.78
2018-11-04T12:19:17.779Z,67.04
2018-11-04T12:21:45.771Z,67.25
2018-11-04T12:24:13.974Z,68.13
2018-11-04T12:26:41.936Z,67.42
2018-11-04T12:29:09.921Z,69.06
2018-11-04T12:31:38.195Z,67.79
2018-11-04T12:34:06.157Z,68.35
2018-11-04T12:36:34.101Z,68.25
2018-11-04T12:39:02.048Z,68.90
2018-11-04T12:41:30.279Z,67.96
2018-11-04T12:43:58.314Z,67.35
2018-11-04T12:46:26.384Z,67.43
2018-11-04T12:48:54.456Z,67.42
2018-11-04T12:51:22.469Z,67.14
2018-11-04T12:53:50.923Z,67.10
2018-11-04T12:56:19.545Z,67.45
2018-11-04T12:58:47.864Z,67.05
2018-11-04T13:01:15.935Z,66.51
2018-11-04T13:03:43.887Z,66.46
2018-11-04T13:06:13.998Z,67.13
2018-11-04T13:08:42.553Z,67.26
2018-11-04T13:11:11.013Z,67.19
2018-11-04T13:13:40.224Z,67.74
2018-11-04T13:16:09.492Z,66.96
2018-11-04T13:18:37.648Z,66.93
2018-11-04T13:21:05.828Z,67.12
2018-11-04T13:23:33.791Z,67.03
2018-11-04T13:26:01.925Z,67.39
2018-11-04T13:28:30.800Z,66.73
2018-11-04T13:30:58.792Z,67.38
2018-11-04T13:33:26.965Z,67.23
2018-11-04T13:35:55.085Z,67.27
2018-11-04T13:38:23.595Z,67.48
2018-11-04T13:40:52.045Z,67.34
2018-11-04T13:43:20.554Z,66.91
2018-11-04T13:45:48.513Z,67.23
2018-11-04T13:48:16.496Z,67.07
2018-11-04T13:50:44.541Z,67.64
2018-11-04T13:53:12.555Z,68.13
2018-11-04T13:55:40.717Z,67.83
2018-11-04T13:58:08.813Z,68.27
2018-11-04T14:00:36.877Z,67.95
2018-11-04T14:03:05.109Z,68.09
2018-11-04T14:05:33.106Z,68.03
2018-11-04T14:08:01.225Z,67.52
2018-11-04T14:10:29.189Z,67.61
2018-11-04T14:12:57.263Z,68.26
2018-11-04T14:15:25.173Z,67.56
2018-11-04T14:17:53.239Z,67.66
2018-11-04T14:20:21.287Z,67.87
2018-11-04T14:22:49.283Z,67.50
2018-11-04T14:25:17.332Z,67.40
2018-11-04T14:27:45.469Z,67.66
2018-11-04T14:30:14.544Z,68.29
2018-11-04T14:32:42.940Z,68.40
2018-11-04T14:35:11.522Z,68.08
2018-11-04T14:37:40.628Z,68.10
2018-11-04T14:40:10.431Z,68.44
2018-11-04T14:42:39.153Z,68.34
2018-11-04T14:45:07.492Z,68.07
2018-11-04T14:47:35.666Z,68.42
2018-11-04T14:50:04.486Z,68.14
2018-11-04T14:52:32.648Z,68.21
2018-11-04T14:55:00.853Z,68.28
2018-11-04T14:57:28.933Z,68.37
2018-11-04T14:59:57.318Z,68.46
2018-11-04T15:02:25.665Z,68.67
2018-11-04T15:04:53.981Z,68.87
2018-11-04T15:07:26.947Z,68.58
2018-11-04T15:09:56.399Z,69.02
2018-11-04T15:12:24.709Z,68.67
2018-11-04T15:14:52.814Z,68.89
2018-11-04T15:17:20.824Z,68.86
2018-11-04T15:19:48.828Z,69.04
2018-11-04T15:22:16.814Z,68.83
2018-11-04T15:24:44.860Z,69.18
2018-11-04T15:27:12.903Z,69.41
2018-11-04T15:29:40.946Z,69.45
2018-11-04T15:32:09.368Z,69.12
2018-11-04T15:34:37.574Z,68.85
2018-11-04T15:37:05.667Z,69.07
2018-11-04T15:39:33.589Z,69.11
2018-11-04T15:42:01.750Z,69.32
2018-11-04T15:44:29.796Z,69.43
2018-11-04T15:46:57.829Z,69.85
2018-11-04T15:49:25.864Z,69.84
2018-11-04T15:51:54.056Z,70.05
2018-11-04T15:54:23.070Z,70.31
2018-11-04T15:56:51.184Z,70.31
2018-11-04T15:59:19.233Z,70.59
2018-11-04T16:01:47.284Z,70.91
2018-11-04T16:04:15.605Z,70.60
2018-11-04T16:06:49.150Z,71.09
2018-11-04T16:09:17.230Z,70.91
2018-11-04T16:11:45.229Z,71.37
2018-11-04T16:14:13.199Z,70.91
2018-11-04T16:16:41.163Z,70.65
2018-11-04T16:19:09.629Z,70.45
2018-11-04T16:21:37.830Z,70.82
2018-11-04T16:24:05.942Z,71.11
2018-11-04T16:26:34.013Z,70.90
2018-11-04T16:29:02.003Z,71.17
2018-11-04T16:31:29.963Z,71.25
2018-11-04T16:33:57.953Z,71.21
2018-11-04T16:36:25.952Z,71.15
2018-11-04T16:38:54.071Z,70.95
2018-11-04T16:41:22.846Z,71.46
2018-11-04T16:43:57.501Z,71.71
2018-11-04T16:46:25.529Z,72.34
2018-11-04T16:48:56.677Z,72.58
2018-11-04T16:51:26.848Z,72.04
2018-11-04T16:53:54.902Z,72.69
2018-11-04T16:56:23.110Z,72.66
2018-11-04T16:58:51.424Z,72.51
2018-11-04T17:01:19.811Z,72.11
2018-11-04T17:03:53.250Z,72.28
2018-11-04T17:06:21.583Z,72.95
2018-11-04T17:08:49.694Z,72.83
2018-11-04T17:11:17.732Z,73.32
2018-11-04T17:13:45.738Z,73.86
2018-11-04T17:16:13.796Z,73.61
2018-11-04T17:18:41.913Z,73.99
2018-11-04T17:21:09.849Z,74.18
2018-11-04T17:23:37.792Z,74.58
2018-11-04T17:26:05.868Z,74.54
2018-11-04T17:28:33.840Z,75.55
2018-11-04T17:31:01.886Z,75.35
2018-11-04T17:33:29.907Z,74.95
2018-11-04T17:35:58.050Z,75.72
2018-11-04T17:38:25.977Z,75.64
2018-11-04T17:40:54.374Z,76.25
2018-11-04T17:43:22.558Z,75.88
2018-11-04T17:45:50.597Z,76.44
2018-11-04T17:48:18.616Z,76.26
2018-11-04T17:50:46.654Z,76.48
2018-11-04T17:53:20.078Z,76.91
2018-11-04T17:55:49.898Z,76.66
2018-11-04T17:58:34.252Z,76.81
2018-11-04T18:01:03.341Z,76.79
2018-11-04T18:03:32.328Z,77.00
2018-11-04T18:06:00.257Z,76.96
2018-11-04T18:08:29.284Z,76.70
2018-11-04T18:10:57.366Z,76.38
2018-11-04T18:13:25.369Z,76.25
2018-11-04T18:15:55.385Z,76.25
2018-11-04T18:18:26.575Z,76.54
2018-11-04T18:20:54.557Z,75.93
2018-11-04T18:23:22.870Z,75.62
2018-11-04T18:25:50.983Z,75.70
2018-11-04T18:28:19.103Z,75.56
2018-11-04T18:30:47.121Z,75.82
2018-11-04T18:33:15.057Z,75.94
2018-11-04T18:35:43.037Z,76.37
2018-11-04T18:38:10.970Z,76.48
2018-11-04T18:40:39.004Z,76.72
2018-11-04T18:43:06.995Z,76.71
2018-11-04T18:45:34.911Z,77.18
2018-11-04T18:48:02.855Z,77.31
2018-11-04T18:50:30.879Z,77.52
2018-11-04T18:52:58.728Z,77.03
2018-11-04T18:55:26.647Z,77.19
2018-11-04T18:57:54.533Z,78.24
2018-11-04T19:00:22.443Z,78.04
2018-11-04T19:02:50.412Z,78.61
2018-11-04T19:05:18.611Z,79.40
2018-11-04T19:07:47.323Z,79.05
2018-11-04T19:10:16.842Z,79.26
2018-11-04T19:12:44.794Z,79.33
2018-11-04T19:15:13.222Z,79.29
2018-11-04T19:17:41.159Z,79.79
2018-11-04T19:20:10.692Z,80.16
2018-11-04T19:22:39.126Z,80.50
2018-11-04T19:25:08.269Z,80.49
2018-11-04T19:27:36.362Z,80.29
2018-11-04T19:30:05.322Z,80.00
2018-11-04T19:32:33.361Z,80.02
2018-11-04T19:35:01.788Z,79.90
2018-11-04T19:37:29.775Z,79.85
2018-11-04T19:39:57.720Z,79.54
2018-11-04T19:42:25.703Z,79.44
2018-11-04T19:44:53.620Z,79.55
2018-11-04T19:47:21.507Z,79.52
2018-11-04T19:49:49.532Z,79.14
2018-11-04T19:52:17.452Z,79.50
2018-11-04T19:54:45.403Z,79.49
2018-11-04T19:57:13.384Z,79.15
2018-11-04T19:59:41.340Z,78.98
2018-11-04T20:02:09.285Z,78.74
2018-11-04T20:04:37.262Z,78.96
2018-11-04T20:07:05.473Z,78.99
2018-11-04T20:09:33.405Z,79.13
2018-11-04T20:12:02.091Z,78.63
2018-11-04T20:14:30.020Z,78.52
2018-11-04T20:16:58.034Z,78.57
2018-11-04T20:19:31.625Z,79.02
2018-11-04T20:21:59.557Z,78.51
2018-11-04T20:24:33.866Z,78.58
2018-11-04T20:27:01.841Z,78.28
2018-11-04T20:29:30.412Z,78.07
2018-11-04T20:32:03.876Z,78.32
2018-11-04T20:34:31.855Z,78.82
2018-11-04T20:36:59.934Z,78.42
2018-11-04T20:39:33.609Z,78.30
2018-11-04T20:42:05.199Z,78.08
2018-11-04T20:44:41.695Z,78.67
2018-11-04T20:47:10.621Z,78.31
2018-11-04T20:49:44.411Z,78.26
2018-11-04T20:52:12.436Z,77.78
2018-11-04T20:54:42.372Z,77.67
2018-11-04T20:57:19.656Z,77.49
2018-11-04T20:59:47.728Z,77.20
2018-11-04T21:02:15.972Z,77.68
2018-11-04T21:04:47.682Z,77.13
2018-11-04T21:07:15.802Z,76.92
2018-11-04T21:09:43.842Z,77.02
2018-11-04T21:12:11.889Z,76.69
2018-11-04T21:14:39.840Z,76.49
2018-11-04T21:17:07.961Z,76.65
2018-11-04T21:19:35.916Z,76.71
2018-11-04T21:22:04.069Z,76.21
2018-11-04T21:24:32.133Z,76.18
2018-11-04T21:27:00.149Z,76.09
2018-11-04T21:29:28.529Z,76.29
2018-11-04T21:31:56.142Z,76.40
2018-11-04T21:34:24.149Z,76.54
2018-11-04T21:36:52.189Z,76.75
2018-11-04T21:39:20.152Z,76.88
2018-11-04T21:41:48.140Z,77.11
2018-11-04T21:44:16.439Z,76.83
2018-11-04T21:46:44.077Z,77.05
2018-11-04T21:49:12.083Z,77.02
2018-11-04T21:51:40.084Z,76.92
2018-11-04T21:54:08.109Z,78.05
2018-11-04T21:56:36.222Z,78.11
2018-11-04T21:59:04.225Z,78.40
2018-11-04T22:01:32.200Z,78.79
2018-11-04T22:04:00.457Z,78.88
2018-11-04T22:06:28.834Z,78.91
2018-11-04T22:08:56.820Z,78.85
2018-11-04T22:11:24.856Z,78.32
2018-11-04T22:13:53.100Z,78.63
2018-11-04T22:16:21.001Z,78.28
2018-11-04T22:18:48.934Z,78.22
2018-11-04T22:21:17.122Z,78.38
2018-11-04T22:23:45.140Z,78.46
2018-11-04T22:26:13.105Z,78.53
2018-11-04T22:28:41.160Z,77.96
2018-11-04T22:31:09.141Z,78.55
2018-11-04T22:33:37.139Z,78.87
2018-11-04T22:36:05.451Z,79.18
2018-11-04T22:38:33.384Z,79.18
2018-11-04T22:41:01.414Z,79.50
2018-11-04T22:43:29.401Z,80.61
2018-11-04T22:45:57.397Z,81.23
2018-11-04T22:48:25.356Z,81.20
2018-11-04T22:50:53.409Z,81.62
2018-11-04T22:53:21.402Z,82.48
2018-11-04T22:55:49.429Z,82.34
2018-11-04T22:58:17.478Z,82.62
2018-11-04T23:00:46.456Z,82.25
2018-11-04T23:03:14.502Z,82.19
2018-11-04T23:05:42.562Z,82.82
2018-11-04T23:08:10.710Z,82.68
2018-11-04T23:10:38.661Z,83.18
2018-11-04T23:13:06.719Z,82.81
2018-11-04T23:15:34.696Z,82.23
2018-11-04T23:18:02.837Z,82.19
2018-11-04T23:20:30.817Z,82.25
2018-11-04T23:22:58.857Z,82.12
2018-11-04T23:25:26.873Z,81.75
2018-11-04T23:27:54.896Z,81.45
2018-11-04T23:30:22.980Z,80.99
2018-11-04T23:32:51.021Z,80.55
2018-11-04T23:35:18.982Z,81.60
2018-11-04T23:37:47.108Z,81.33
2018-11-04T23:40:15.047Z,80.99
2018-11-04T23:42:43.074Z,81.38
2018-11-04T23:45:12.624Z,81.73
2018-11-04T23:47:40.608Z,82.20
2018-11-04T23:50:11.160Z,82.38
2018-11-04T23:52:39.100Z,82.68
2018-11-04T23:55:08.046Z,83.29
2018-11-04T23:57:35.949Z,83.66
